sensor_id;sensor_type;location;lat;lon;timestamp;P1;durP1;ratioP1;P2;durP2;ratioP2
24729;SDS011;12832;52.392;13.066;2023-07-31T00:00:50;0.30;;;0.30;;
24729;SDS011;12832;52.392;13.066;2023-07-31T00:03:16;0.10;;;0.10;;
24729;SDS011;12832;52.392;13.066;2023-07-31T00:05:43;0.20;;;0.20;;
24729;SDS011;12832;52.392;13.066;2023-07-31T00:08:09;0.20;;;0.20;;
24729;SDS011;12832;52.392;13.066;2023-07-31T00:10:35;0.30;;;0.30;;
24729;SDS011;12832;52.392;13.066;2023-07-31T00:13:01;0.20;;;0.20;;
24729;SDS011;12832;52.392;13.066;2023-07-31T00:15:27;0.25;;;0.25;;
24729;SDS011;12832;52.392;13.066;2023-07-31T00:17:54;0.10;;;0.10;;
24729;SDS011;12832;52.392;13.066;2023-07-31T00:20:20;0.20;;;0.20;;
24729;SDS011;12832;52.392;13.066;2023-07-31T00:22:47;0.28;;;0.28;;
24729;SDS011;12832;52.392;13.066;2023-07-31T00:25:13;0.30;;;0.30;;
24729;SDS011;12832;52.392;13.066;2023-07-31T00:27:39;0.20;;;0.20;;
24729;SDS011;12832;52.392;13.066;2023-07-31T00:30:10;0.30;;;0.30;;
24729;SDS011;12832;52.392;13.066;2023-07-31T00:32:36;0.30;;;0.30;;
24729;SDS011;12832;52.392;13.066;2023-07-31T00:35:02;0.20;;;0.20;;
24729;SDS011;12832;52.392;13.066;2023-07-31T00:37:29;0.40;;;0.40;;
24729;SDS011;12832;52.392;13.066;2023-07-31T00:39:55;0.30;;;0.30;;
24729;SDS011;12832;52.392;13.066;2023-07-31T00:42:21;0.30;;;0.30;;
24729;SDS011;12832;52.392;13.066;2023-07-31T00:44:47;0.20;;;0.20;;
24729;SDS011;12832;52.392;13.066;2023-07-31T00:47:14;0.20;;;0.20;;
24729;SDS011;12832;52.392;13.066;2023-07-31T00:49:40;0.20;;;0.20;;
24729;SDS011;12832;52.392;13.066;2023-07-31T00:52:06;0.20;;;0.20;;
24729;SDS011;12832;52.392;13.066;2023-07-31T00:54:34;0.30;;;0.30;;
24729;SDS011;12832;52.392;13.066;2023-07-31T00:57:01;0.30;;;0.30;;
24729;SDS011;12832;52.392;13.066;2023-07-31T00:59:28;0.20;;;0.20;;
24729;SDS011;12832;52.392;13.066;2023-07-31T01:01:54;0.20;;;0.20;;
24729;SDS011;12832;52.392;13.066;2023-07-31T01:04:20;0.22;;;0.22;;
24729;SDS011;12832;52.392;13.066;2023-07-31T01:09:48;0.22;;;0.22;;
24729;SDS011;12832;52.392;13.066;2023-07-31T01:12:22;0.20;;;0.20;;
24729;SDS011;12832;52.392;13.066;2023-07-31T01:14:50;0.25;;;0.25;;
24729;SDS011;12832;52.392;13.066;2023-07-31T01:17:27;0.30;;;0.30;;
24729;SDS011;12832;52.392;13.066;2023-07-31T01:19:53;0.20;;;0.20;;
24729;SDS011;12832;52.392;13.066;2023-07-31T01:22:24;0.25;;;0.25;;
24729;SDS011;12832;52.392;13.066;2023-07-31T01:24:59;0.30;;;0.30;;
24729;SDS011;12832;52.392;13.066;2023-07-31T01:27:44;0.28;;;0.28;;
24729;SDS011;12832;52.392;13.066;2023-07-31T01:30:20;0.30;;;0.28;;
24729;SDS011;12832;52.392;13.066;2023-07-31T01:32:51;0.30;;;0.30;;
24729;SDS011;12832;52.392;13.066;2023-07-31T01:35:20;0.35;;;0.35;;
24729;SDS011;12832;52.392;13.066;2023-07-31T01:37:46;0.30;;;0.20;;
24729;SDS011;12832;52.392;13.066;2023-07-31T01:40:13;0.22;;;0.22;;
24729;SDS011;12832;52.392;13.066;2023-07-31T01:42:39;0.20;;;0.20;;
24729;SDS011;12832;52.392;13.066;2023-07-31T01:45:05;0.30;;;0.30;;
24729;SDS011;12832;52.392;13.066;2023-07-31T01:47:32;0.20;;;0.20;;
24729;SDS011;12832;52.392;13.066;2023-07-31T01:49:58;0.30;;;0.30;;
24729;SDS011;12832;52.392;13.066;2023-07-31T01:52:24;0.30;;;0.30;;
24729;SDS011;12832;52.392;13.066;2023-07-31T01:54:51;0.20;;;0.20;;
24729;SDS011;12832;52.392;13.066;2023-07-31T01:57:17;0.30;;;0.30;;
24729;SDS011;12832;52.392;13.066;2023-07-31T01:59:44;0.30;;;0.30;;
24729;SDS011;12832;52.392;13.066;2023-07-31T02:02:10;0.28;;;0.28;;
24729;SDS011;12832;52.392;13.066;2023-07-31T02:04:36;0.20;;;0.20;;
24729;SDS011;12832;52.392;13.066;2023-07-31T02:07:04;0.30;;;0.30;;
24729;SDS011;12832;52.392;13.066;2023-07-31T02:09:31;0.20;;;0.20;;
24729;SDS011;12832;52.392;13.066;2023-07-31T02:11:57;0.30;;;0.30;;
24729;SDS011;12832;52.392;13.066;2023-07-31T02:14:23;0.25;;;0.25;;
24729;SDS011;12832;52.392;13.066;2023-07-31T02:16:50;0.38;;;0.38;;
24729;SDS011;12832;52.392;13.066;2023-07-31T02:19:16;0.20;;;0.20;;
24729;SDS011;12832;52.392;13.066;2023-07-31T02:21:42;0.25;;;0.25;;
24729;SDS011;12832;52.392;13.066;2023-07-31T02:24:08;0.30;;;0.30;;
24729;SDS011;12832;52.392;13.066;2023-07-31T02:26:35;0.47;;;0.30;;
24729;SDS011;12832;52.392;13.066;2023-07-31T02:29:01;0.28;;;0.28;;
24729;SDS011;12832;52.392;13.066;2023-07-31T02:31:27;0.20;;;0.20;;
24729;SDS011;12832;52.392;13.066;2023-07-31T02:33:53;0.25;;;0.25;;
24729;SDS011;12832;52.392;13.066;2023-07-31T02:36:19;0.40;;;0.40;;
24729;SDS011;12832;52.392;13.066;2023-07-31T02:38:45;0.20;;;0.20;;
24729;SDS011;12832;52.392;13.066;2023-07-31T02:41:12;0.38;;;0.30;;
24729;SDS011;12832;52.392;13.066;2023-07-31T02:43:38;0.20;;;0.20;;
24729;SDS011;12832;52.392;13.066;2023-07-31T02:46:04;0.22;;;0.20;;
24729;SDS011;12832;52.392;13.066;2023-07-31T02:48:30;0.22;;;0.22;;
24729;SDS011;12832;52.392;13.066;2023-07-31T02:50:57;0.20;;;0.20;;
24729;SDS011;12832;52.392;13.066;2023-07-31T02:53:23;0.22;;;0.22;;
24729;SDS011;12832;52.392;13.066;2023-07-31T02:55:49;0.20;;;0.20;;
24729;SDS011;12832;52.392;13.066;2023-07-31T02:58:15;0.40;;;0.40;;
24729;SDS011;12832;52.392;13.066;2023-07-31T03:00:45;0.30;;;0.30;;
24729;SDS011;12832;52.392;13.066;2023-07-31T03:03:11;0.20;;;0.20;;
24729;SDS011;12832;52.392;13.066;2023-07-31T03:05:37;1.15;;;0.32;;
24729;SDS011;12832;52.392;13.066;2023-07-31T03:08:04;0.28;;;0.28;;
24729;SDS011;12832;52.392;13.066;2023-07-31T03:10:30;0.20;;;0.20;;
24729;SDS011;12832;52.392;13.066;2023-07-31T03:12:56;0.20;;;0.20;;
24729;SDS011;12832;52.392;13.066;2023-07-31T03:15:22;0.20;;;0.20;;
24729;SDS011;12832;52.392;13.066;2023-07-31T03:17:48;0.17;;;0.17;;
24729;SDS011;12832;52.392;13.066;2023-07-31T03:20:15;0.40;;;0.25;;
24729;SDS011;12832;52.392;13.066;2023-07-31T03:22:45;0.20;;;0.20;;
24729;SDS011;12832;52.392;13.066;2023-07-31T03:25:11;0.30;;;0.30;;
24729;SDS011;12832;52.392;13.066;2023-07-31T03:27:38;0.20;;;0.20;;
24729;SDS011;12832;52.392;13.066;2023-07-31T03:30:05;0.25;;;0.25;;
24729;SDS011;12832;52.392;13.066;2023-07-31T03:32:31;0.35;;;0.35;;
24729;SDS011;12832;52.392;13.066;2023-07-31T03:34:58;0.43;;;0.32;;
24729;SDS011;12832;52.392;13.066;2023-07-31T03:37:24;0.20;;;0.20;;
24729;SDS011;12832;52.392;13.066;2023-07-31T03:39:50;0.25;;;0.25;;
24729;SDS011;12832;52.392;13.066;2023-07-31T03:42:16;0.45;;;0.30;;
24729;SDS011;12832;52.392;13.066;2023-07-31T03:44:43;0.40;;;0.25;;
24729;SDS011;12832;52.392;13.066;2023-07-31T03:47:09;0.20;;;0.20;;
24729;SDS011;12832;52.392;13.066;2023-07-31T03:49:35;0.30;;;0.30;;
24729;SDS011;12832;52.392;13.066;2023-07-31T03:52:02;0.22;;;0.22;;
24729;SDS011;12832;52.392;13.066;2023-07-31T03:54:28;0.28;;;0.28;;
24729;SDS011;12832;52.392;13.066;2023-07-31T03:56:54;0.20;;;0.20;;
24729;SDS011;12832;52.392;13.066;2023-07-31T03:59:21;0.38;;;0.38;;
24729;SDS011;12832;52.392;13.066;2023-07-31T04:01:47;0.40;;;0.30;;
24729;SDS011;12832;52.392;13.066;2023-07-31T04:04:13;0.28;;;0.28;;
24729;SDS011;12832;52.392;13.066;2023-07-31T04:06:39;0.50;;;0.20;;
24729;SDS011;12832;52.392;13.066;2023-07-31T04:09:06;0.25;;;0.25;;
24729;SDS011;12832;52.392;13.066;2023-07-31T04:11:32;0.30;;;0.20;;
24729;SDS011;12832;52.392;13.066;2023-07-31T04:13:58;0.30;;;0.30;;
24729;SDS011;12832;52.392;13.066;2023-07-31T04:16:24;0.20;;;0.20;;
24729;SDS011;12832;52.392;13.066;2023-07-31T04:18:51;0.30;;;0.20;;
24729;SDS011;12832;52.392;13.066;2023-07-31T04:21:17;0.25;;;0.25;;
24729;SDS011;12832;52.392;13.066;2023-07-31T04:23:43;0.30;;;0.30;;
24729;SDS011;12832;52.392;13.066;2023-07-31T04:26:10;0.20;;;0.20;;
24729;SDS011;12832;52.392;13.066;2023-07-31T04:28:36;0.30;;;0.30;;
24729;SDS011;12832;52.392;13.066;2023-07-31T04:31:02;0.20;;;0.20;;
24729;SDS011;12832;52.392;13.066;2023-07-31T04:33:29;0.30;;;0.30;;
24729;SDS011;12832;52.392;13.066;2023-07-31T04:35:55;0.35;;;0.35;;
24729;SDS011;12832;52.392;13.066;2023-07-31T04:38:21;0.30;;;0.22;;
24729;SDS011;12832;52.392;13.066;2023-07-31T04:40:48;0.25;;;0.25;;
24729;SDS011;12832;52.392;13.066;2023-07-31T04:43:14;0.35;;;0.30;;
24729;SDS011;12832;52.392;13.066;2023-07-31T04:45:46;0.20;;;0.20;;
24729;SDS011;12832;52.392;13.066;2023-07-31T04:48:16;0.20;;;0.20;;
24729;SDS011;12832;52.392;13.066;2023-07-31T04:50:42;0.20;;;0.20;;
24729;SDS011;12832;52.392;13.066;2023-07-31T04:53:08;0.20;;;0.20;;
24729;SDS011;12832;52.392;13.066;2023-07-31T04:55:34;0.40;;;0.40;;
24729;SDS011;12832;52.392;13.066;2023-07-31T04:58:00;0.30;;;0.30;;
24729;SDS011;12832;52.392;13.066;2023-07-31T05:00:27;0.30;;;0.30;;
24729;SDS011;12832;52.392;13.066;2023-07-31T05:02:53;0.20;;;0.20;;
24729;SDS011;12832;52.392;13.066;2023-07-31T05:05:19;0.40;;;0.40;;
24729;SDS011;12832;52.392;13.066;2023-07-31T05:07:45;0.50;;;0.50;;
24729;SDS011;12832;52.392;13.066;2023-07-31T05:10:11;1.52;;;0.65;;
24729;SDS011;12832;52.392;13.066;2023-07-31T05:12:38;1.10;;;0.70;;
24729;SDS011;12832;52.392;13.066;2023-07-31T05:15:04;1.00;;;0.60;;
24729;SDS011;12832;52.392;13.066;2023-07-31T05:17:30;2.05;;;0.85;;
24729;SDS011;12832;52.392;13.066;2023-07-31T05:19:57;1.63;;;0.98;;
24729;SDS011;12832;52.392;13.066;2023-07-31T05:22:23;1.55;;;1.08;;
24729;SDS011;12832;52.392;13.066;2023-07-31T05:24:49;2.30;;;1.20;;
24729;SDS011;12832;52.392;13.066;2023-07-31T05:27:16;1.80;;;1.02;;
24729;SDS011;12832;52.392;13.066;2023-07-31T05:29:44;2.15;;;1.42;;
24729;SDS011;12832;52.392;13.066;2023-07-31T05:32:11;2.85;;;1.70;;
24729;SDS011;12832;52.392;13.066;2023-07-31T05:34:37;3.63;;;2.10;;
24729;SDS011;12832;52.392;13.066;2023-07-31T05:37:04;3.72;;;2.20;;
24729;SDS011;12832;52.392;13.066;2023-07-31T05:39:31;2.40;;;2.10;;
24729;SDS011;12832;52.392;13.066;2023-07-31T05:41:57;3.58;;;2.13;;
24729;SDS011;12832;52.392;13.066;2023-07-31T05:44:23;3.28;;;1.98;;
24729;SDS011;12832;52.392;13.066;2023-07-31T05:46:50;2.88;;;1.75;;
24729;SDS011;12832;52.392;13.066;2023-07-31T05:49:16;3.70;;;1.63;;
24729;SDS011;12832;52.392;13.066;2023-07-31T05:51:42;2.90;;;1.67;;
24729;SDS011;12832;52.392;13.066;2023-07-31T05:54:08;2.15;;;1.67;;
24729;SDS011;12832;52.392;13.066;2023-07-31T05:56:34;1.95;;;1.17;;
24729;SDS011;12832;52.392;13.066;2023-07-31T05:59:01;2.38;;;1.30;;
24729;SDS011;12832;52.392;13.066;2023-07-31T06:01:28;1.90;;;1.38;;
24729;SDS011;12832;52.392;13.066;2023-07-31T06:03:54;2.03;;;1.23;;
24729;SDS011;12832;52.392;13.066;2023-07-31T06:06:21;2.13;;;0.98;;
24729;SDS011;12832;52.392;13.066;2023-07-31T06:08:47;2.28;;;1.10;;
24729;SDS011;12832;52.392;13.066;2023-07-31T06:11:13;1.60;;;1.00;;
24729;SDS011;12832;52.392;13.066;2023-07-31T06:13:39;2.95;;;1.58;;
24729;SDS011;12832;52.392;13.066;2023-07-31T06:16:09;3.38;;;1.10;;
24729;SDS011;12832;52.392;13.066;2023-07-31T06:18:35;1.80;;;1.15;;
24729;SDS011;12832;52.392;13.066;2023-07-31T06:21:01;2.10;;;1.20;;
24729;SDS011;12832;52.392;13.066;2023-07-31T06:23:28;3.83;;;1.20;;
24729;SDS011;12832;52.392;13.066;2023-07-31T06:25:54;1.77;;;1.17;;
24729;SDS011;12832;52.392;13.066;2023-07-31T06:28:20;2.17;;;1.30;;
24729;SDS011;12832;52.392;13.066;2023-07-31T06:30:46;1.90;;;1.08;;
24729;SDS011;12832;52.392;13.066;2023-07-31T06:33:13;1.92;;;0.90;;
24729;SDS011;12832;52.392;13.066;2023-07-31T06:35:39;3.28;;;1.38;;
24729;SDS011;12832;52.392;13.066;2023-07-31T06:38:05;3.67;;;1.17;;
24729;SDS011;12832;52.392;13.066;2023-07-31T06:40:31;2.50;;;1.25;;
24729;SDS011;12832;52.392;13.066;2023-07-31T06:42:57;2.55;;;1.20;;
24729;SDS011;12832;52.392;13.066;2023-07-31T06:45:23;2.28;;;1.40;;
24729;SDS011;12832;52.392;13.066;2023-07-31T06:47:50;2.50;;;1.40;;
24729;SDS011;12832;52.392;13.066;2023-07-31T06:50:16;2.20;;;1.05;;
24729;SDS011;12832;52.392;13.066;2023-07-31T06:52:42;3.28;;;1.20;;
24729;SDS011;12832;52.392;13.066;2023-07-31T06:55:16;1.92;;;1.17;;
24729;SDS011;12832;52.392;13.066;2023-07-31T06:57:44;3.08;;;1.10;;
24729;SDS011;12832;52.392;13.066;2023-07-31T07:00:11;4.22;;;1.27;;
24729;SDS011;12832;52.392;13.066;2023-07-31T07:02:37;1.92;;;1.42;;
24729;SDS011;12832;52.392;13.066;2023-07-31T07:05:04;1.60;;;1.30;;
24729;SDS011;12832;52.392;13.066;2023-07-31T07:07:30;2.13;;;1.20;;
24729;SDS011;12832;52.392;13.066;2023-07-31T07:09:56;3.45;;;1.00;;
24729;SDS011;12832;52.392;13.066;2023-07-31T07:12:22;2.13;;;1.48;;
24729;SDS011;12832;52.392;13.066;2023-07-31T07:14:49;1.98;;;1.23;;
24729;SDS011;12832;52.392;13.066;2023-07-31T07:17:15;2.28;;;1.27;;
24729;SDS011;12832;52.392;13.066;2023-07-31T07:19:41;1.80;;;1.30;;
24729;SDS011;12832;52.392;13.066;2023-07-31T07:22:07;2.88;;;1.58;;
24729;SDS011;12832;52.392;13.066;2023-07-31T07:24:34;2.60;;;1.42;;
24729;SDS011;12832;52.392;13.066;2023-07-31T07:27:00;1.42;;;1.27;;
24729;SDS011;12832;52.392;13.066;2023-07-31T07:29:26;2.90;;;1.48;;
24729;SDS011;12832;52.392;13.066;2023-07-31T07:31:52;2.33;;;1.40;;
24729;SDS011;12832;52.392;13.066;2023-07-31T07:34:18;2.10;;;1.45;;
24729;SDS011;12832;52.392;13.066;2023-07-31T07:36:44;1.90;;;1.48;;
24729;SDS011;12832;52.392;13.066;2023-07-31T07:39:11;2.15;;;1.25;;
24729;SDS011;12832;52.392;13.066;2023-07-31T07:41:37;3.55;;;1.30;;
24729;SDS011;12832;52.392;13.066;2023-07-31T07:44:04;2.00;;;1.30;;
24729;SDS011;12832;52.392;13.066;2023-07-31T07:46:30;2.80;;;1.30;;
24729;SDS011;12832;52.392;13.066;2023-07-31T07:48:56;1.80;;;1.38;;
24729;SDS011;12832;52.392;13.066;2023-07-31T07:51:22;2.83;;;1.55;;
24729;SDS011;12832;52.392;13.066;2023-07-31T07:53:49;2.00;;;1.70;;
24729;SDS011;12832;52.392;13.066;2023-07-31T07:56:15;2.95;;;1.58;;
24729;SDS011;12832;52.392;13.066;2023-07-31T07:58:41;2.63;;;2.05;;
24729;SDS011;12832;52.392;13.066;2023-07-31T08:01:07;2.95;;;2.45;;
24729;SDS011;12832;52.392;13.066;2023-07-31T08:03:33;2.53;;;2.15;;
24729;SDS011;12832;52.392;13.066;2023-07-31T08:06:00;3.15;;;2.60;;
24729;SDS011;12832;52.392;13.066;2023-07-31T08:08:27;6.75;;;2.33;;
24729;SDS011;12832;52.392;13.066;2023-07-31T08:10:53;5.60;;;2.30;;
24729;SDS011;12832;52.392;13.066;2023-07-31T08:13:20;2.63;;;2.30;;
24729;SDS011;12832;52.392;13.066;2023-07-31T08:15:47;3.25;;;2.13;;
24729;SDS011;12832;52.392;13.066;2023-07-31T08:18:13;2.20;;;2.00;;
24729;SDS011;12832;52.392;13.066;2023-07-31T08:20:39;2.88;;;2.13;;
24729;SDS011;12832;52.392;13.066;2023-07-31T08:23:05;3.67;;;1.98;;
24729;SDS011;12832;52.392;13.066;2023-07-31T08:25:34;1.75;;;1.50;;
24729;SDS011;12832;52.392;13.066;2023-07-31T08:28:03;2.47;;;1.92;;
24729;SDS011;12832;52.392;13.066;2023-07-31T08:30:31;1.63;;;1.42;;
24729;SDS011;12832;52.392;13.066;2023-07-31T08:32:59;1.90;;;1.30;;
24729;SDS011;12832;52.392;13.066;2023-07-31T08:35:26;2.00;;;1.75;;
24729;SDS011;12832;52.392;13.066;2023-07-31T08:37:55;2.03;;;1.60;;
24729;SDS011;12832;52.392;13.066;2023-07-31T08:40:22;2.10;;;1.77;;
24729;SDS011;12832;52.392;13.066;2023-07-31T08:42:49;2.50;;;1.50;;
24729;SDS011;12832;52.392;13.066;2023-07-31T08:45:17;1.40;;;1.30;;
24729;SDS011;12832;52.392;13.066;2023-07-31T08:47:44;1.23;;;1.13;;
24729;SDS011;12832;52.392;13.066;2023-07-31T08:50:14;2.47;;;1.25;;
24729;SDS011;12832;52.392;13.066;2023-07-31T08:52:43;1.73;;;1.30;;
24729;SDS011;12832;52.392;13.066;2023-07-31T08:55:09;1.63;;;1.20;;
24729;SDS011;12832;52.392;13.066;2023-07-31T08:57:37;2.35;;;1.30;;
24729;SDS011;12832;52.392;13.066;2023-07-31T09:00:04;2.25;;;1.20;;
24729;SDS011;12832;52.392;13.066;2023-07-31T09:05:12;3.22;;;1.00;;
24729;SDS011;12832;52.392;13.066;2023-07-31T09:07:38;1.10;;;1.00;;
24729;SDS011;12832;52.392;13.066;2023-07-31T09:10:06;1.50;;;1.17;;
24729;SDS011;12832;52.392;13.066;2023-07-31T09:12:32;1.83;;;0.90;;
24729;SDS011;12832;52.392;13.066;2023-07-31T09:14:59;0.93;;;0.85;;
24729;SDS011;12832;52.392;13.066;2023-07-31T09:17:30;1.30;;;1.00;;
24729;SDS011;12832;52.392;13.066;2023-07-31T09:19:59;1.20;;;0.98;;
24729;SDS011;12832;52.392;13.066;2023-07-31T09:22:42;1.02;;;0.93;;
24729;SDS011;12832;52.392;13.066;2023-07-31T09:25:16;1.02;;;0.80;;
24729;SDS011;12832;52.392;13.066;2023-07-31T09:27:54;1.27;;;0.90;;
24729;SDS011;12832;52.392;13.066;2023-07-31T09:30:23;1.55;;;0.80;;
24729;SDS011;12832;52.392;13.066;2023-07-31T09:32:50;1.33;;;0.80;;
24729;SDS011;12832;52.392;13.066;2023-07-31T09:35:33;0.95;;;0.82;;
24729;SDS011;12832;52.392;13.066;2023-07-31T09:38:01;1.23;;;0.80;;
24729;SDS011;12832;52.392;13.066;2023-07-31T09:40:33;0.82;;;0.82;;
24729;SDS011;12832;52.392;13.066;2023-07-31T09:43:02;1.23;;;0.90;;
24729;SDS011;12832;52.392;13.066;2023-07-31T09:45:29;0.88;;;0.80;;
24729;SDS011;12832;52.392;13.066;2023-07-31T09:48:13;0.80;;;0.70;;
24729;SDS011;12832;52.392;13.066;2023-07-31T09:50:48;1.85;;;0.90;;
24729;SDS011;12832;52.392;13.066;2023-07-31T09:53:15;1.45;;;1.10;;
24729;SDS011;12832;52.392;13.066;2023-07-31T09:55:42;1.73;;;0.90;;
24729;SDS011;12832;52.392;13.066;2023-07-31T09:58:10;1.65;;;1.10;;
24729;SDS011;12832;52.392;13.066;2023-07-31T10:00:37;1.48;;;0.90;;
24729;SDS011;12832;52.392;13.066;2023-07-31T10:03:06;2.25;;;1.08;;
24729;SDS011;12832;52.392;13.066;2023-07-31T10:05:35;1.30;;;1.10;;
24729;SDS011;12832;52.392;13.066;2023-07-31T10:08:04;1.98;;;1.27;;
24729;SDS011;12832;52.392;13.066;2023-07-31T10:10:31;1.75;;;1.20;;
24729;SDS011;12832;52.392;13.066;2023-07-31T10:12:59;2.42;;;1.45;;
24729;SDS011;12832;52.392;13.066;2023-07-31T10:15:26;1.45;;;1.25;;
24729;SDS011;12832;52.392;13.066;2023-07-31T10:17:54;1.65;;;1.13;;
24729;SDS011;12832;52.392;13.066;2023-07-31T10:20:22;2.40;;;1.20;;
24729;SDS011;12832;52.392;13.066;2023-07-31T10:22:51;2.65;;;1.40;;
24729;SDS011;12832;52.392;13.066;2023-07-31T10:25:17;2.35;;;1.65;;
24729;SDS011;12832;52.392;13.066;2023-07-31T10:27:45;1.73;;;1.20;;
24729;SDS011;12832;52.392;13.066;2023-07-31T10:30:16;1.40;;;1.20;;
24729;SDS011;12832;52.392;13.066;2023-07-31T10:32:45;1.67;;;1.30;;
24729;SDS011;12832;52.392;13.066;2023-07-31T10:35:13;2.60;;;1.63;;
24729;SDS011;12832;52.392;13.066;2023-07-31T10:37:41;2.67;;;1.45;;
24729;SDS011;12832;52.392;13.066;2023-07-31T10:40:16;2.63;;;1.42;;
24729;SDS011;12832;52.392;13.066;2023-07-31T10:42:47;3.22;;;1.40;;
24729;SDS011;12832;52.392;13.066;2023-07-31T10:45:31;2.85;;;1.55;;
24729;SDS011;12832;52.392;13.066;2023-07-31T10:48:02;3.05;;;1.80;;
24729;SDS011;12832;52.392;13.066;2023-07-31T10:50:29;2.88;;;2.38;;
24729;SDS011;12832;52.392;13.066;2023-07-31T10:52:58;2.63;;;2.08;;
24729;SDS011;12832;52.392;13.066;2023-07-31T11:00:36;3.13;;;2.67;;
24729;SDS011;12832;52.392;13.066;2023-07-31T11:03:07;4.13;;;2.83;;
24729;SDS011;12832;52.392;13.066;2023-07-31T11:13:49;2.38;;;2.03;;
24729;SDS011;12832;52.392;13.066;2023-07-31T11:16:18;2.53;;;2.20;;
24729;SDS011;12832;52.392;13.066;2023-07-31T11:18:47;2.90;;;1.98;;
24729;SDS011;12832;52.392;13.066;2023-07-31T11:23:41;2.47;;;1.95;;
24729;SDS011;12832;52.392;13.066;2023-07-31T11:26:11;3.45;;;2.25;;
24729;SDS011;12832;52.392;13.066;2023-07-31T11:28:38;2.17;;;1.80;;
24729;SDS011;12832;52.392;13.066;2023-07-31T11:31:04;3.15;;;2.10;;
24729;SDS011;12832;52.392;13.066;2023-07-31T11:33:34;3.20;;;2.00;;
24729;SDS011;12832;52.392;13.066;2023-07-31T11:36:00;2.30;;;2.03;;
24729;SDS011;12832;52.392;13.066;2023-07-31T11:40:57;2.60;;;1.90;;
24729;SDS011;12832;52.392;13.066;2023-07-31T11:43:25;2.83;;;1.95;;
24729;SDS011;12832;52.392;13.066;2023-07-31T11:45:53;3.22;;;2.10;;
24729;SDS011;12832;52.392;13.066;2023-07-31T11:48:22;2.75;;;1.88;;
24729;SDS011;12832;52.392;13.066;2023-07-31T11:50:50;2.60;;;1.88;;
24729;SDS011;12832;52.392;13.066;2023-07-31T11:53:22;4.53;;;2.15;;
24729;SDS011;12832;52.392;13.066;2023-07-31T11:55:52;2.72;;;2.20;;
24729;SDS011;12832;52.392;13.066;2023-07-31T11:58:18;2.30;;;2.10;;
24729;SDS011;12832;52.392;13.066;2023-07-31T12:00:46;3.13;;;2.25;;
24729;SDS011;12832;52.392;13.066;2023-07-31T12:03:13;2.50;;;2.17;;
24729;SDS011;12832;52.392;13.066;2023-07-31T12:05:40;2.22;;;2.00;;
24729;SDS011;12832;52.392;13.066;2023-07-31T12:08:09;4.05;;;2.55;;
24729;SDS011;12832;52.392;13.066;2023-07-31T12:10:37;2.30;;;2.10;;
24729;SDS011;12832;52.392;13.066;2023-07-31T12:13:19;2.08;;;1.88;;
24729;SDS011;12832;52.392;13.066;2023-07-31T12:15:47;2.80;;;2.00;;
24729;SDS011;12832;52.392;13.066;2023-07-31T12:18:14;2.55;;;2.20;;
24729;SDS011;12832;52.392;13.066;2023-07-31T12:20:42;2.83;;;2.50;;
24729;SDS011;12832;52.392;13.066;2023-07-31T12:23:19;2.55;;;2.35;;
24729;SDS011;12832;52.392;13.066;2023-07-31T12:26:00;4.35;;;2.95;;
24729;SDS011;12832;52.392;13.066;2023-07-31T12:28:28;5.43;;;2.50;;
24729;SDS011;12832;52.392;13.066;2023-07-31T12:30:57;2.28;;;2.08;;
24729;SDS011;12832;52.392;13.066;2023-07-31T12:33:30;3.40;;;2.50;;
24729;SDS011;12832;52.392;13.066;2023-07-31T12:35:59;2.65;;;2.20;;
24729;SDS011;12832;52.392;13.066;2023-07-31T12:38:26;3.53;;;2.42;;
24729;SDS011;12832;52.392;13.066;2023-07-31T12:40:53;4.13;;;2.53;;
24729;SDS011;12832;52.392;13.066;2023-07-31T12:43:19;2.83;;;1.90;;
24729;SDS011;12832;52.392;13.066;2023-07-31T12:45:45;2.42;;;2.03;;
24729;SDS011;12832;52.392;13.066;2023-07-31T12:48:13;4.07;;;2.10;;
24729;SDS011;12832;52.392;13.066;2023-07-31T12:50:39;2.42;;;1.95;;
24729;SDS011;12832;52.392;13.066;2023-07-31T12:53:06;3.67;;;2.03;;
24729;SDS011;12832;52.392;13.066;2023-07-31T12:55:33;3.00;;;2.03;;
24729;SDS011;12832;52.392;13.066;2023-07-31T12:58:00;2.55;;;1.90;;
24729;SDS011;12832;52.392;13.066;2023-07-31T13:00:26;2.05;;;1.63;;
24729;SDS011;12832;52.392;13.066;2023-07-31T13:02:52;4.47;;;2.10;;
24729;SDS011;12832;52.392;13.066;2023-07-31T13:05:19;2.60;;;1.85;;
24729;SDS011;12832;52.392;13.066;2023-07-31T13:07:46;3.00;;;2.00;;
24729;SDS011;12832;52.392;13.066;2023-07-31T13:10:14;2.40;;;1.88;;
24729;SDS011;12832;52.392;13.066;2023-07-31T13:12:41;1.95;;;1.80;;
24729;SDS011;12832;52.392;13.066;2023-07-31T13:15:08;2.17;;;1.75;;
24729;SDS011;12832;52.392;13.066;2023-07-31T13:17:35;1.77;;;1.67;;
24729;SDS011;12832;52.392;13.066;2023-07-31T13:20:01;3.08;;;1.85;;
24729;SDS011;12832;52.392;13.066;2023-07-31T13:22:29;4.53;;;2.08;;
24729;SDS011;12832;52.392;13.066;2023-07-31T13:24:55;2.25;;;1.67;;
24729;SDS011;12832;52.392;13.066;2023-07-31T13:27:21;3.15;;;1.60;;
24729;SDS011;12832;52.392;13.066;2023-07-31T13:29:48;2.25;;;1.80;;
24729;SDS011;12832;52.392;13.066;2023-07-31T13:32:15;1.90;;;1.50;;
24729;SDS011;12832;52.392;13.066;2023-07-31T13:34:42;2.67;;;1.83;;
24729;SDS011;12832;52.392;13.066;2023-07-31T13:37:08;2.22;;;1.50;;
24729;SDS011;12832;52.392;13.066;2023-07-31T13:39:35;2.25;;;1.70;;
24729;SDS011;12832;52.392;13.066;2023-07-31T13:42:04;4.28;;;1.85;;
24729;SDS011;12832;52.392;13.066;2023-07-31T13:44:40;2.10;;;1.50;;
24729;SDS011;12832;52.392;13.066;2023-07-31T13:47:07;1.50;;;1.40;;
24729;SDS011;12832;52.392;13.066;2023-07-31T13:49:35;4.72;;;1.60;;
24729;SDS011;12832;52.392;13.066;2023-07-31T13:52:02;2.45;;;1.73;;
24729;SDS011;12832;52.392;13.066;2023-07-31T13:54:28;2.83;;;1.75;;
24729;SDS011;12832;52.392;13.066;2023-07-31T13:56:56;2.30;;;2.05;;
24729;SDS011;12832;52.392;13.066;2023-07-31T13:59:23;2.00;;;1.83;;
24729;SDS011;12832;52.392;13.066;2023-07-31T14:01:49;1.83;;;1.35;;
24729;SDS011;12832;52.392;13.066;2023-07-31T14:04:16;1.80;;;1.70;;
24729;SDS011;12832;52.392;13.066;2023-07-31T14:06:43;2.33;;;1.50;;
24729;SDS011;12832;52.392;13.066;2023-07-31T14:09:10;1.70;;;1.60;;
24729;SDS011;12832;52.392;13.066;2023-07-31T14:11:36;2.88;;;1.70;;
24729;SDS011;12832;52.392;13.066;2023-07-31T14:14:05;2.63;;;1.75;;
24729;SDS011;12832;52.392;13.066;2023-07-31T14:16:31;2.30;;;1.80;;
24729;SDS011;12832;52.392;13.066;2023-07-31T14:18:58;2.80;;;1.55;;
24729;SDS011;12832;52.392;13.066;2023-07-31T14:21:25;2.63;;;1.58;;
24729;SDS011;12832;52.392;13.066;2023-07-31T14:23:51;2.97;;;1.80;;
24729;SDS011;12832;52.392;13.066;2023-07-31T14:26:18;2.13;;;1.83;;
24729;SDS011;12832;52.392;13.066;2023-07-31T14:28:45;2.97;;;1.92;;
24729;SDS011;12832;52.392;13.066;2023-07-31T14:31:11;2.22;;;1.50;;
24729;SDS011;12832;52.392;13.066;2023-07-31T14:33:37;3.38;;;1.77;;
24729;SDS011;12832;52.392;13.066;2023-07-31T14:36:04;2.95;;;1.70;;
24729;SDS011;12832;52.392;13.066;2023-07-31T14:38:30;1.85;;;1.35;;
24729;SDS011;12832;52.392;13.066;2023-07-31T14:40:56;3.17;;;1.50;;
24729;SDS011;12832;52.392;13.066;2023-07-31T14:43:22;2.50;;;1.70;;
24729;SDS011;12832;52.392;13.066;2023-07-31T14:45:49;1.67;;;1.48;;
24729;SDS011;12832;52.392;13.066;2023-07-31T14:48:15;2.08;;;1.50;;
24729;SDS011;12832;52.392;13.066;2023-07-31T14:50:41;1.80;;;1.70;;
24729;SDS011;12832;52.392;13.066;2023-07-31T14:53:07;1.70;;;1.60;;
24729;SDS011;12832;52.392;13.066;2023-07-31T14:55:34;2.28;;;1.77;;
24729;SDS011;12832;52.392;13.066;2023-07-31T14:58:00;1.77;;;1.67;;